sensor_id;sensor_type;location;lat;lon;timestamp;P1;durP1;ratioP1;P2;durP2;ratioP2
56401;SDS011;42299;35.160;26.100;2024-02-21T00:05:26;26.77;;;23.65;;
56401;SDS011;42299;35.160;26.100;2024-02-21T00:10:48;20.85;;;16.95;;
56401;SDS011;42299;35.160;26.100;2024-02-21T00:16:11;20.42;;;17.27;;
56401;SDS011;42299;35.160;26.100;2024-02-21T00:21:35;18.50;;;16.20;;
56401;SDS011;42299;35.160;26.100;2024-02-21T00:26:58;21.63;;;16.80;;
56401;SDS011;42299;35.160;26.100;2024-02-21T00:32:20;19.33;;;13.10;;
56401;SDS011;42299;35.160;26.100;2024-02-21T00:37:44;16.77;;;13.20;;
56401;SDS011;42299;35.160;26.100;2024-02-21T00:43:06;25.92;;;20.85;;
56401;SDS011;42299;35.160;26.100;2024-02-21T00:48:29;20.45;;;15.85;;
56401;SDS011;42299;35.160;26.100;2024-02-21T00:53:53;20.52;;;14.68;;
56401;SDS011;42299;35.160;26.100;2024-02-21T00:59:16;18.60;;;14.98;;
56401;SDS011;42299;35.160;26.100;2024-02-21T01:04:38;17.20;;;14.27;;
56401;SDS011;42299;35.160;26.100;2024-02-21T01:10:03;21.55;;;16.77;;
56401;SDS011;42299;35.160;26.100;2024-02-21T01:15:25;16.75;;;14.18;;
56401;SDS011;42299;35.160;26.100;2024-02-21T01:20:48;20.65;;;15.10;;
56401;SDS011;42299;35.160;26.100;2024-02-21T01:26:12;28.17;;;23.58;;
56401;SDS011;42299;35.160;26.100;2024-02-21T01:31:36;18.55;;;13.60;;
56401;SDS011;42299;35.160;26.100;2024-02-21T01:36:58;23.50;;;15.88;;
56401;SDS011;42299;35.160;26.100;2024-02-21T01:42:26;25.45;;;18.50;;
56401;SDS011;42299;35.160;26.100;2024-02-21T01:47:48;17.80;;;13.90;;
56401;SDS011;42299;35.160;26.100;2024-02-21T01:53:12;20.20;;;15.65;;
56401;SDS011;42299;35.160;26.100;2024-02-21T01:58:40;20.45;;;16.35;;
56401;SDS011;42299;35.160;26.100;2024-02-21T02:04:04;53.70;;;44.33;;
56401;SDS011;42299;35.160;26.100;2024-02-21T02:09:27;40.08;;;35.75;;
56401;SDS011;42299;35.160;26.100;2024-02-21T02:14:58;30.38;;;27.13;;
56401;SDS011;42299;35.160;26.100;2024-02-21T02:20:21;23.75;;;18.52;;
56401;SDS011;42299;35.160;26.100;2024-02-21T02:25:45;19.55;;;14.18;;
56401;SDS011;42299;35.160;26.100;2024-02-21T02:31:09;23.48;;;16.65;;
56401;SDS011;42299;35.160;26.100;2024-02-21T02:36:32;24.45;;;17.92;;
56401;SDS011;42299;35.160;26.100;2024-02-21T02:41:56;26.77;;;19.42;;
56401;SDS011;42299;35.160;26.100;2024-02-21T02:47:19;23.42;;;19.98;;
56401;SDS011;42299;35.160;26.100;2024-02-21T02:52:41;25.77;;;22.20;;
56401;SDS011;42299;35.160;26.100;2024-02-21T02:58:06;25.83;;;20.27;;
56401;SDS011;42299;35.160;26.100;2024-02-21T03:03:29;21.35;;;18.40;;
56401;SDS011;42299;35.160;26.100;2024-02-21T03:08:51;26.58;;;23.00;;
56401;SDS011;42299;35.160;26.100;2024-02-21T03:14:17;29.65;;;25.70;;
56401;SDS011;42299;35.160;26.100;2024-02-21T03:19:39;29.95;;;25.75;;
56401;SDS011;42299;35.160;26.100;2024-02-21T03:25:02;35.30;;;31.33;;
56401;SDS011;42299;35.160;26.100;2024-02-21T03:30:26;20.05;;;16.10;;
56401;SDS011;42299;35.160;26.100;2024-02-21T03:35:49;24.85;;;16.98;;
56401;SDS011;42299;35.160;26.100;2024-02-21T03:41:11;23.05;;;16.73;;
56401;SDS011;42299;35.160;26.100;2024-02-21T03:46:35;20.55;;;15.50;;
56401;SDS011;42299;35.160;26.100;2024-02-21T03:51:58;22.10;;;17.35;;
56401;SDS011;42299;35.160;26.100;2024-02-21T03:57:20;35.67;;;31.50;;
56401;SDS011;42299;35.160;26.100;2024-02-21T04:02:44;33.75;;;30.00;;
56401;SDS011;42299;35.160;26.100;2024-02-21T04:08:07;30.55;;;27.25;;
56401;SDS011;42299;35.160;26.100;2024-02-21T04:13:30;23.58;;;18.05;;
56401;SDS011;42299;35.160;26.100;2024-02-21T04:18:54;92.10;;;82.10;;
56401;SDS011;42299;35.160;26.100;2024-02-21T04:24:16;60.65;;;54.75;;
56401;SDS011;42299;35.160;26.100;2024-02-21T04:29:39;22.85;;;18.92;;
56401;SDS011;42299;35.160;26.100;2024-02-21T04:35:03;22.98;;;17.45;;
56401;SDS011;42299;35.160;26.100;2024-02-21T04:40:25;26.95;;;23.20;;
56401;SDS011;42299;35.160;26.100;2024-02-21T04:45:48;28.17;;;24.63;;
56401;SDS011;42299;35.160;26.100;2024-02-21T04:51:12;20.38;;;16.70;;
56401;SDS011;42299;35.160;26.100;2024-02-21T04:56:35;21.17;;;14.63;;
56401;SDS011;42299;35.160;26.100;2024-02-21T05:01:57;20.38;;;14.98;;
56401;SDS011;42299;35.160;26.100;2024-02-21T05:07:22;16.60;;;14.80;;
56401;SDS011;42299;35.160;26.100;2024-02-21T05:12:44;22.00;;;17.38;;
56401;SDS011;42299;35.160;26.100;2024-02-21T05:18:07;23.15;;;19.60;;
56401;SDS011;42299;35.160;26.100;2024-02-21T05:23:31;16.65;;;13.70;;
56401;SDS011;42299;35.160;26.100;2024-02-21T05:28:53;18.40;;;14.75;;
56401;SDS011;42299;35.160;26.100;2024-02-21T05:34:16;25.10;;;18.27;;
56401;SDS011;42299;35.160;26.100;2024-02-21T05:39:39;22.65;;;15.65;;
56401;SDS011;42299;35.160;26.100;2024-02-21T05:45:02;17.73;;;13.60;;
56401;SDS011;42299;35.160;26.100;2024-02-21T05:50:25;20.25;;;14.93;;
56401;SDS011;42299;35.160;26.100;2024-02-21T05:55:50;29.45;;;22.92;;
56401;SDS011;42299;35.160;26.100;2024-02-21T06:01:13;28.63;;;23.65;;
56401;SDS011;42299;35.160;26.100;2024-02-21T06:06:35;25.45;;;18.27;;
56401;SDS011;42299;35.160;26.100;2024-02-21T06:11:59;14.30;;;10.48;;
56401;SDS011;42299;35.160;26.100;2024-02-21T06:17:22;23.17;;;14.55;;
56401;SDS011;42299;35.160;26.100;2024-02-21T06:22:44;12.05;;;8.00;;
56401;SDS011;42299;35.160;26.100;2024-02-21T06:28:08;11.45;;;8.35;;
56401;SDS011;42299;35.160;26.100;2024-02-21T06:33:31;11.45;;;8.00;;
56401;SDS011;42299;35.160;26.100;2024-02-21T06:38:53;8.95;;;7.38;;
56401;SDS011;42299;35.160;26.100;2024-02-21T06:44:17;9.82;;;7.38;;
56401;SDS011;42299;35.160;26.100;2024-02-21T06:49:40;10.00;;;7.85;;
56401;SDS011;42299;35.160;26.100;2024-02-21T06:55:03;9.15;;;7.40;;
56401;SDS011;42299;35.160;26.100;2024-02-21T07:00:27;13.13;;;7.68;;
56401;SDS011;42299;35.160;26.100;2024-02-21T07:05:50;15.07;;;10.88;;
56401;SDS011;42299;35.160;26.100;2024-02-21T07:11:12;26.30;;;18.63;;
56401;SDS011;42299;35.160;26.100;2024-02-21T07:16:36;24.90;;;19.38;;
56401;SDS011;42299;35.160;26.100;2024-02-21T07:21:59;16.23;;;11.35;;
56401;SDS011;42299;35.160;26.100;2024-02-21T07:27:21;9.80;;;7.25;;
56401;SDS011;42299;35.160;26.100;2024-02-21T07:32:52;11.50;;;6.63;;
56401;SDS011;42299;35.160;26.100;2024-02-21T07:38:15;9.37;;;7.60;;
56401;SDS011;42299;35.160;26.100;2024-02-21T07:43:38;8.55;;;7.63;;
56401;SDS011;42299;35.160;26.100;2024-02-21T07:49:02;10.70;;;7.63;;
56401;SDS011;42299;35.160;26.100;2024-02-21T07:54:25;10.43;;;9.30;;
56401;SDS011;42299;35.160;26.100;2024-02-21T07:59:47;10.55;;;9.20;;
56401;SDS011;42299;35.160;26.100;2024-02-21T08:05:11;10.55;;;7.85;;
56401;SDS011;42299;35.160;26.100;2024-02-21T08:10:34;8.95;;;7.00;;
56401;SDS011;42299;35.160;26.100;2024-02-21T08:15:56;8.57;;;6.13;;
56401;SDS011;42299;35.160;26.100;2024-02-21T08:21:21;11.15;;;7.40;;
56401;SDS011;42299;35.160;26.100;2024-02-21T08:26:43;11.13;;;7.05;;
56401;SDS011;42299;35.160;26.100;2024-02-21T08:32:06;10.07;;;6.57;;
56401;SDS011;42299;35.160;26.100;2024-02-21T08:37:30;11.82;;;7.85;;
56401;SDS011;42299;35.160;26.100;2024-02-21T08:42:52;7.97;;;6.18;;
56401;SDS011;42299;35.160;26.100;2024-02-21T08:48:15;7.07;;;6.30;;
56401;SDS011;42299;35.160;26.100;2024-02-21T08:53:39;7.30;;;6.20;;
56401;SDS011;42299;35.160;26.100;2024-02-21T08:59:02;9.35;;;6.30;;
56401;SDS011;42299;35.160;26.100;2024-02-21T09:04:25;9.07;;;6.50;;
56401;SDS011;42299;35.160;26.100;2024-02-21T09:09:49;7.75;;;6.07;;
56401;SDS011;42299;35.160;26.100;2024-02-21T09:15:11;7.03;;;5.32;;
56401;SDS011;42299;35.160;26.100;2024-02-21T09:20:35;7.10;;;6.28;;
56401;SDS011;42299;35.160;26.100;2024-02-21T09:26:01;7.65;;;5.70;;
56401;SDS011;42299;35.160;26.100;2024-02-21T09:31:24;9.38;;;7.03;;
56401;SDS011;42299;35.160;26.100;2024-02-21T09:36:47;8.15;;;6.63;;
56401;SDS011;42299;35.160;26.100;2024-02-21T09:42:11;10.60;;;6.45;;
56401;SDS011;42299;35.160;26.100;2024-02-21T09:47:34;8.27;;;6.55;;
56401;SDS011;42299;35.160;26.100;2024-02-21T09:53:06;8.27;;;6.68;;
56401;SDS011;42299;35.160;26.100;2024-02-21T09:58:30;6.22;;;5.60;;
56401;SDS011;42299;35.160;26.100;2024-02-21T10:03:55;8.57;;;6.28;;
56401;SDS011;42299;35.160;26.100;2024-02-21T10:09:21;7.72;;;6.28;;
56401;SDS011;42299;35.160;26.100;2024-02-21T10:14:45;14.30;;;11.30;;
56401;SDS011;42299;35.160;26.100;2024-02-21T10:20:08;15.80;;;12.00;;
56401;SDS011;42299;35.160;26.100;2024-02-21T10:25:31;7.22;;;5.88;;
56401;SDS011;42299;35.160;26.100;2024-02-21T10:30:55;8.60;;;7.28;;
56401;SDS011;42299;35.160;26.100;2024-02-21T10:36:17;16.45;;;13.85;;
56401;SDS011;42299;35.160;26.100;2024-02-21T10:41:41;9.48;;;7.82;;
56401;SDS011;42299;35.160;26.100;2024-02-21T10:47:07;13.55;;;9.10;;
56401;SDS011;42299;35.160;26.100;2024-02-21T10:52:33;9.20;;;7.50;;
56401;SDS011;42299;35.160;26.100;2024-02-21T11:03:34;15.85;;;11.25;;
56401;SDS011;42299;35.160;26.100;2024-02-21T11:09:01;9.18;;;7.47;;
56401;SDS011;42299;35.160;26.100;2024-02-21T11:14:26;9.88;;;7.40;;
56401;SDS011;42299;35.160;26.100;2024-02-21T11:19:50;7.63;;;6.70;;
56401;SDS011;42299;35.160;26.100;2024-02-21T11:25:13;12.52;;;8.88;;
56401;SDS011;42299;35.160;26.100;2024-02-21T11:30:43;9.05;;;7.63;;
56401;SDS011;42299;35.160;26.100;2024-02-21T11:36:10;9.35;;;7.97;;
56401;SDS011;42299;35.160;26.100;2024-02-21T11:41:33;9.80;;;7.60;;
56401;SDS011;42299;35.160;26.100;2024-02-21T11:46:56;7.60;;;5.95;;
56401;SDS011;42299;35.160;26.100;2024-02-21T11:52:20;10.65;;;7.25;;
56401;SDS011;42299;35.160;26.100;2024-02-21T11:57:47;11.70;;;8.43;;
56401;SDS011;42299;35.160;26.100;2024-02-21T12:03:10;10.50;;;8.55;;
56401;SDS011;42299;35.160;26.100;2024-02-21T12:08:42;7.82;;;7.03;;
56401;SDS011;42299;35.160;26.100;2024-02-21T12:14:04;9.52;;;7.47;;
56401;SDS011;42299;35.160;26.100;2024-02-21T12:19:28;9.50;;;7.20;;
56401;SDS011;42299;35.160;26.100;2024-02-21T12:24:53;13.43;;;8.13;;
56401;SDS011;42299;35.160;26.100;2024-02-21T12:30:16;10.38;;;7.50;;
56401;SDS011;42299;35.160;26.100;2024-02-21T12:35:38;8.27;;;6.03;;
56401;SDS011;42299;35.160;26.100;2024-02-21T12:41:03;11.57;;;5.78;;
56401;SDS011;42299;35.160;26.100;2024-02-21T12:46:25;8.82;;;7.30;;
56401;SDS011;42299;35.160;26.100;2024-02-21T12:51:48;10.43;;;7.95;;
56401;SDS011;42299;35.160;26.100;2024-02-21T12:57:12;8.75;;;7.72;;
56401;SDS011;42299;35.160;26.100;2024-02-21T13:02:35;9.77;;;6.85;;
56401;SDS011;42299;35.160;26.100;2024-02-21T13:07:57;9.95;;;7.85;;
56401;SDS011;42299;35.160;26.100;2024-02-21T13:13:22;10.93;;;8.25;;
56401;SDS011;42299;35.160;26.100;2024-02-21T13:18:45;8.00;;;6.22;;
56401;SDS011;42299;35.160;26.100;2024-02-21T13:24:08;9.68;;;7.68;;
56401;SDS011;42299;35.160;26.100;2024-02-21T13:29:32;9.45;;;7.35;;
56401;SDS011;42299;35.160;26.100;2024-02-21T13:34:55;9.95;;;7.10;;
56401;SDS011;42299;35.160;26.100;2024-02-21T13:40:20;10.23;;;7.13;;
56401;SDS011;42299;35.160;26.100;2024-02-21T13:45:45;11.40;;;7.35;;
56401;SDS011;42299;35.160;26.100;2024-02-21T13:51:18;10.82;;;7.65;;
56401;SDS011;42299;35.160;26.100;2024-02-21T13:56:48;10.15;;;6.40;;
56401;SDS011;42299;35.160;26.100;2024-02-21T14:08:45;9.75;;;7.57;;
56401;SDS011;42299;35.160;26.100;2024-02-21T14:14:07;11.45;;;8.73;;
56401;SDS011;42299;35.160;26.100;2024-02-21T14:19:30;9.40;;;7.57;;
56401;SDS011;42299;35.160;26.100;2024-02-21T14:24:54;10.52;;;7.85;;
56401;SDS011;42299;35.160;26.100;2024-02-21T14:30:17;9.55;;;7.40;;
56401;SDS011;42299;35.160;26.100;2024-02-21T14:35:40;9.88;;;7.82;;
56401;SDS011;42299;35.160;26.100;2024-02-21T14:41:05;13.98;;;11.30;;
56401;SDS011;42299;35.160;26.100;2024-02-21T14:46:27;12.43;;;9.15;;
56401;SDS011;42299;35.160;26.100;2024-02-21T14:51:50;10.88;;;7.85;;
56401;SDS011;42299;35.160;26.100;2024-02-21T14:57:14;10.13;;;7.80;;
56401;SDS011;42299;35.160;26.100;2024-02-21T15:02:37;11.52;;;8.52;;
56401;SDS011;42299;35.160;26.100;2024-02-21T15:07:59;11.75;;;8.82;;
56401;SDS011;42299;35.160;26.100;2024-02-21T15:13:23;13.73;;;9.20;;
56401;SDS011;42299;35.160;26.100;2024-02-21T15:18:46;13.23;;;8.70;;
56401;SDS011;42299;35.160;26.100;2024-02-21T15:24:09;21.65;;;15.52;;
56401;SDS011;42299;35.160;26.100;2024-02-21T15:29:33;13.52;;;11.00;;
56401;SDS011;42299;35.160;26.100;2024-02-21T15:34:56;12.65;;;10.02;;
56401;SDS011;42299;35.160;26.100;2024-02-21T15:40:19;17.50;;;10.25;;
56401;SDS011;42299;35.160;26.100;2024-02-21T15:45:43;14.93;;;10.90;;
56401;SDS011;42299;35.160;26.100;2024-02-21T15:51:06;36.97;;;26.15;;
56401;SDS011;42299;35.160;26.100;2024-02-21T15:56:28;29.73;;;20.80;;
56401;SDS011;42299;35.160;26.100;2024-02-21T16:01:53;26.38;;;19.00;;
56401;SDS011;42299;35.160;26.100;2024-02-21T16:07:15;34.30;;;23.88;;
56401;SDS011;42299;35.160;26.100;2024-02-21T16:12:38;50.15;;;36.72;;
56401;SDS011;42299;35.160;26.100;2024-02-21T16:18:03;73.63;;;49.42;;
56401;SDS011;42299;35.160;26.100;2024-02-21T16:23:26;47.17;;;41.58;;
56401;SDS011;42299;35.160;26.100;2024-02-21T16:28:49;57.38;;;49.70;;
56401;SDS011;42299;35.160;26.100;2024-02-21T16:34:14;95.18;;;85.13;;
56401;SDS011;42299;35.160;26.100;2024-02-21T16:39:36;81.22;;;72.82;;
56401;SDS011;42299;35.160;26.100;2024-02-21T16:44:58;51.80;;;46.33;;
56401;SDS011;42299;35.160;26.100;2024-02-21T16:50:24;52.10;;;46.78;;
56401;SDS011;42299;35.160;26.100;2024-02-21T16:55:46;57.05;;;48.03;;
56401;SDS011;42299;35.160;26.100;2024-02-21T17:01:09;36.25;;;31.85;;
56401;SDS011;42299;35.160;26.100;2024-02-21T17:06:33;59.85;;;54.13;;
56401;SDS011;42299;35.160;26.100;2024-02-21T17:11:56;82.68;;;64.97;;
56401;SDS011;42299;35.160;26.100;2024-02-21T17:17:19;46.20;;;37.13;;
56401;SDS011;42299;35.160;26.100;2024-02-21T17:22:43;49.90;;;41.42;;
56401;SDS011;42299;35.160;26.100;2024-02-21T17:28:06;51.75;;;46.40;;
56401;SDS011;42299;35.160;26.100;2024-02-21T17:33:28;41.22;;;34.63;;
56401;SDS011;42299;35.160;26.100;2024-02-21T17:38:53;31.25;;;26.25;;
56401;SDS011;42299;35.160;26.100;2024-02-21T17:44:15;29.05;;;25.95;;
56401;SDS011;42299;35.160;26.100;2024-02-21T17:49:42;32.25;;;26.67;;
56401;SDS011;42299;35.160;26.100;2024-02-21T17:55:07;27.70;;;22.08;;
56401;SDS011;42299;35.160;26.100;2024-02-21T18:00:35;28.23;;;25.13;;
56401;SDS011;42299;35.160;26.100;2024-02-21T18:06:02;41.13;;;33.70;;
56401;SDS011;42299;35.160;26.100;2024-02-21T18:11:28;21.88;;;17.10;;
56401;SDS011;42299;35.160;26.100;2024-02-21T18:16:51;30.75;;;24.15;;
56401;SDS011;42299;35.160;26.100;2024-02-21T18:22:13;21.58;;;18.48;;
56401;SDS011;42299;35.160;26.100;2024-02-21T18:27:37;52.22;;;46.95;;
56401;SDS011;42299;35.160;26.100;2024-02-21T18:33:00;31.10;;;27.38;;
56401;SDS011;42299;35.160;26.100;2024-02-21T18:38:22;24.33;;;17.52;;
56401;SDS011;42299;35.160;26.100;2024-02-21T18:43:47;22.17;;;19.05;;
56401;SDS011;42299;35.160;26.100;2024-02-21T18:49:09;20.50;;;17.65;;
56401;SDS011;42299;35.160;26.100;2024-02-21T18:54:32;26.98;;;21.80;;
56401;SDS011;42299;35.160;26.100;2024-02-21T18:59:56;17.63;;;13.57;;
56401;SDS011;42299;35.160;26.100;2024-02-21T19:05:18;17.63;;;14.98;;
56401;SDS011;42299;35.160;26.100;2024-02-21T19:10:42;17.92;;;14.40;;
56401;SDS011;42299;35.160;26.100;2024-02-21T19:16:06;22.13;;;18.65;;
56401;SDS011;42299;35.160;26.100;2024-02-21T19:21:31;23.42;;;19.85;;
56401;SDS011;42299;35.160;26.100;2024-02-21T19:26:53;22.42;;;17.58;;
56401;SDS011;42299;35.160;26.100;2024-02-21T19:32:18;49.22;;;43.92;;
56401;SDS011;42299;35.160;26.100;2024-02-21T19:37:42;28.92;;;25.80;;
56401;SDS011;42299;35.160;26.100;2024-02-21T19:43:04;23.13;;;19.90;;
56401;SDS011;42299;35.160;26.100;2024-02-21T19:48:28;24.92;;;18.88;;
56401;SDS011;42299;35.160;26.100;2024-02-21T19:53:51;31.60;;;23.38;;
56401;SDS011;42299;35.160;26.100;2024-02-21T19:59:14;30.55;;;26.00;;
56401;SDS011;42299;35.160;26.100;2024-02-21T20:04:38;37.10;;;27.42;;
56401;SDS011;42299;35.160;26.100;2024-02-21T20:10:00;41.50;;;30.85;;
56401;SDS011;42299;35.160;26.100;2024-02-21T20:15:24;30.33;;;23.35;;
56401;SDS011;42299;35.160;26.100;2024-02-21T20:20:57;17.70;;;15.80;;
56401;SDS011;42299;35.160;26.100;2024-02-21T20:26:20;34.63;;;24.95;;
56401;SDS011;42299;35.160;26.100;2024-02-21T20:31:42;26.65;;;20.52;;
56401;SDS011;42299;35.160;26.100;2024-02-21T20:37:07;17.80;;;14.50;;
56401;SDS011;42299;35.160;26.100;2024-02-21T20:42:31;17.02;;;13.57;;
56401;SDS011;42299;35.160;26.100;2024-02-21T20:47:53;17.05;;;13.70;;
56401;SDS011;42299;35.160;26.100;2024-02-21T20:53:18;18.35;;;14.82;;
56401;SDS011;42299;35.160;26.100;2024-02-21T20:58:43;18.45;;;14.23;;
56401;SDS011;42299;35.160;26.100;2024-02-21T21:04:06;25.25;;;18.23;;
56401;SDS011;42299;35.160;26.100;2024-02-21T21:09:30;21.05;;;15.93;;
56401;SDS011;42299;35.160;26.100;2024-02-21T21:14:53;28.60;;;22.65;;
56401;SDS011;42299;35.160;26.100;2024-02-21T21:20:16;21.40;;;18.13;;
56401;SDS011;42299;35.160;26.100;2024-02-21T21:25:41;32.65;;;25.45;;
56401;SDS011;42299;35.160;26.100;2024-02-21T21:31:04;19.50;;;15.13;;
56401;SDS011;42299;35.160;26.100;2024-02-21T21:36:29;18.30;;;15.30;;
56401;SDS011;42299;35.160;26.100;2024-02-21T21:41:53;18.25;;;14.70;;
56401;SDS011;42299;35.160;26.100;2024-02-21T21:47:17;20.67;;;15.85;;
56401;SDS011;42299;35.160;26.100;2024-02-21T21:52:40;17.88;;;14.20;;
56401;SDS011;42299;35.160;26.100;2024-02-21T21:58:09;16.02;;;13.40;;
56401;SDS011;42299;35.160;26.100;2024-02-21T22:03:41;19.20;;;15.15;;
56401;SDS011;42299;35.160;26.100;2024-02-21T22:09:04;23.17;;;15.20;;
56401;SDS011;42299;35.160;26.100;2024-02-21T22:14:29;17.67;;;14.57;;
56401;SDS011;42299;35.160;26.100;2024-02-21T22:19:55;19.20;;;13.75;;
56401;SDS011;42299;35.160;26.100;2024-02-21T22:25:19;18.65;;;14.32;;
56401;SDS011;42299;35.160;26.100;2024-02-21T22:30:44;18.38;;;14.38;;
56401;SDS011;42299;35.160;26.100;2024-02-21T22:36:10;17.25;;;14.25;;
56401;SDS011;42299;35.160;26.100;2024-02-21T22:41:35;17.05;;;13.30;;
56401;SDS011;42299;35.160;26.100;2024-02-21T22:46:59;16.50;;;13.20;;
56401;SDS011;42299;35.160;26.100;2024-02-21T22:52:25;16.65;;;13.40;;
56401;SDS011;42299;35.160;26.100;2024-02-21T22:57:48;17.92;;;13.65;;
56401;SDS011;42299;35.160;26.100;2024-02-21T23:03:15;24.95;;;22.23;;
56401;SDS011;42299;35.160;26.100;2024-02-21T23:08:41;20.27;;;16.30;;
56401;SDS011;42299;35.160;26.100;2024-02-21T23:14:07;18.73;;;15.07;;
56401;SDS011;42299;35.160;26.100;2024-02-21T23:19:36;17.02;;;13.77;;
56401;SDS011;42299;35.160;26.100;2024-02-21T23:25:02;17.48;;;13.07;;
56401;SDS011;42299;35.160;26.100;2024-02-21T23:30:25;16.55;;;13.05;;
56401;SDS011;42299;35.160;26.100;2024-02-21T23:35:50;16.67;;;12.93;;
56401;SDS011;42299;35.160;26.100;2024-02-21T23:41:14;15.98;;;13.52;;
56401;SDS011;42299;35.160;26.100;2024-02-21T23:46:39;16.60;;;13.43;;
56401;SDS011;42299;35.160;26.100;2024-02-21T23:52:12;16.60;;;13.85;;
56401;SDS011;42299;35.160;26.100;2024-02-21T23:57:37;22.90;;;18.08;;
